Decoded Metar for YSDU (DUBBO in AUSTRALIA) (IATA:DBO) | Meteo·Mobile Aviation Weather
aviador You're here:

YSDU Decoded Metar

DUBBO in AUSTRALIA
Report Time2019-04-25 09:00:00
UTC Time2019-04-25 09:45:52
Flight Rules vfr VFR
Wind160° at 06 kt
W.Decomp.*RWY 11: 4.6 kt HW 3.9 kt RCW
RWY 23: 1.0 kt HW 5.9 kt LCW
Visibility9999 m
Phenomena:N/A
Clouds:N/A
Expected CloudBase > 4,000 ft AGL from Temp-Dew spread
CeilingNone
Temp21°C (ISA +8)
Dew Point11°C (53% RH)
AAT19.2°C
QNH1018 hPa
Density Alt1,821 ft
Elevation902 ft
Report Wrong Elevation
Raw Report
YSDU 250900Z AUTO 16006KT 9999 // NCD 21/11 Q1018=

Extra information for YSDU:More info

Metar Taf Metar & Taf Last 4 Metars F.Rules Stats Wind Profile Meteogram Temp Stats Airport Information Weather charts Add Link Nearby VenuesMetar ALERT Operation Metar Decoded Social comments